createdAt,value
2022-10-16T00:03:58.279Z,6.2
2022-10-16T00:09:00.256Z,5.1
2022-10-16T00:14:02.241Z,6.1
2022-10-16T00:19:04.320Z,4.9
2022-10-16T00:24:06.902Z,6.7
2022-10-16T00:29:08.910Z,8.1
2022-10-16T00:34:10.867Z,5.9
2022-10-16T00:39:12.814Z,8.1
2022-10-16T00:44:14.958Z,6.2
2022-10-16T00:49:16.909Z,4.9
2022-10-16T00:54:18.853Z,6.4
2022-10-16T00:59:21.004Z,5.5
2022-10-16T01:04:23.101Z,12
2022-10-16T01:09:23.657Z,5.1
2022-10-16T01:14:26.173Z,5.8
2022-10-16T01:19:28.353Z,5.7
2022-10-16T01:24:30.292Z,6.8
2022-10-16T01:29:33.008Z,5.1
2022-10-16T01:34:35.174Z,5.2
2022-10-16T01:39:37.293Z,5
2022-10-16T01:44:39.339Z,5.9
2022-10-16T01:49:41.270Z,5.8
2022-10-16T01:54:43.706Z,5.9
2022-10-16T01:59:46.367Z,6.7
2022-10-16T02:04:48.519Z,6.7
2022-10-16T02:09:50.379Z,13.3
2022-10-16T02:14:50.863Z,6.3
2022-10-16T02:19:53.061Z,6.9
2022-10-16T02:24:54.975Z,7.6
2022-10-16T02:29:55.987Z,7.6
2022-10-16T02:34:56.901Z,6.9
2022-10-16T02:39:58.856Z,8
2022-10-16T02:45:01.301Z,6.8
2022-10-16T02:50:03.361Z,6.3
2022-10-16T02:55:05.227Z,8.8
2022-10-16T03:00:07.130Z,7.2
2022-10-16T03:05:09.096Z,7.9
2022-10-16T03:10:11.209Z,8.4
2022-10-16T03:15:13.379Z,7
2022-10-16T03:20:15.546Z,7.3
2022-10-16T03:25:17.458Z,7
2022-10-16T03:30:19.746Z,6.7
2022-10-16T03:35:21.674Z,6.5
2022-10-16T03:40:23.657Z,9.8
2022-10-16T03:45:26.026Z,7.5
2022-10-16T03:50:28.046Z,9
2022-10-16T03:55:30.000Z,7
2022-10-16T04:00:32.192Z,8.5
2022-10-16T04:05:34.407Z,9.6
2022-10-16T04:10:36.368Z,8.7
2022-10-16T04:15:38.460Z,9.7
2022-10-16T04:20:40.951Z,9.2
2022-10-16T04:25:42.881Z,10
2022-10-16T04:30:44.791Z,9.4
2022-10-16T04:35:46.701Z,9.1
2022-10-16T04:40:48.874Z,7.3
2022-10-16T04:45:51.102Z,7.5
2022-10-16T04:50:55.088Z,11.8
2022-10-16T04:55:57.516Z,10
2022-10-16T05:00:59.474Z,9.1
2022-10-16T05:06:01.439Z,9.2
2022-10-16T05:11:03.386Z,9.3
2022-10-16T05:16:05.291Z,8.5
2022-10-16T05:21:07.569Z,9.6
2022-10-16T05:26:09.499Z,9.4
2022-10-16T05:31:11.413Z,9.7
2022-10-16T05:36:13.481Z,9.3
2022-10-16T05:41:15.741Z,8.4
2022-10-16T05:46:17.779Z,8.9
2022-10-16T05:51:19.852Z,8.8
2022-10-16T05:56:21.875Z,9
2022-10-16T06:01:24.263Z,9.7
2022-10-16T06:06:26.949Z,8.3
2022-10-16T06:11:28.916Z,8.2
2022-10-16T06:16:30.811Z,9.9
2022-10-16T06:21:32.806Z,7.9
2022-10-16T06:26:34.861Z,6.7
2022-10-16T06:31:37.019Z,8.1
2022-10-16T06:36:38.998Z,6.9
2022-10-16T06:41:41.032Z,8.1
2022-10-16T06:46:43.013Z,6.1
2022-10-16T06:51:44.982Z,6.3
2022-10-16T06:56:46.971Z,5.8
2022-10-16T07:01:49.129Z,7.5
2022-10-16T07:06:51.659Z,5.7
2022-10-16T07:11:53.629Z,7.6
2022-10-16T07:16:55.603Z,14.6
2022-10-16T07:21:56.176Z,8.3
2022-10-16T07:26:58.119Z,7.5
2022-10-16T07:32:00.598Z,8
2022-10-16T07:37:02.649Z,7.3
2022-10-16T07:42:05.099Z,5.7
2022-10-16T07:47:07.043Z,6.3
2022-10-16T07:52:08.967Z,6.7
2022-10-16T07:57:10.931Z,7
2022-10-16T08:02:13.061Z,6.6
2022-10-16T08:07:14.994Z,7
2022-10-16T08:12:16.895Z,6.5
2022-10-16T08:17:19.077Z,9.9
2022-10-16T08:22:21.479Z,6
2022-10-16T08:27:23.487Z,6.7
2022-10-16T08:32:27.517Z,10.1
2022-10-16T08:37:28.757Z,8.2
2022-10-16T08:42:29.347Z,4.7
2022-10-16T08:47:32.098Z,5.2
2022-10-16T08:52:33.975Z,6.8
2022-10-16T08:57:35.953Z,5.7
2022-10-16T09:02:38.121Z,5.2
2022-10-16T09:07:40.039Z,5.6
2022-10-16T09:12:41.953Z,7.6
2022-10-16T09:17:42.544Z,4.6
2022-10-16T09:22:44.900Z,5.4
2022-10-16T09:27:46.870Z,4
2022-10-16T09:32:49.265Z,8
2022-10-16T09:37:49.589Z,5.7
2022-10-16T09:42:51.726Z,4.5
2022-10-16T09:47:55.576Z,4.3
2022-10-16T09:53:00.206Z,5.2
2022-10-16T09:58:02.153Z,5.7
2022-10-16T10:03:04.267Z,7.1
2022-10-16T10:08:04.595Z,5.2
2022-10-16T10:13:06.650Z,6
2022-10-16T10:18:08.530Z,5.6
2022-10-16T10:23:10.463Z,4.7
2022-10-16T10:28:12.556Z,5.3
2022-10-16T10:33:14.931Z,4.9
2022-10-16T10:38:16.797Z,5.6
2022-10-16T10:43:18.822Z,4.5
2022-10-16T10:48:20.907Z,4.8
2022-10-16T10:53:23.409Z,4.9
2022-10-16T10:58:25.565Z,4.2
2022-10-16T11:03:35.498Z,3.8
2022-10-16T11:08:37.992Z,4.9
2022-10-16T11:13:40.091Z,6.3
2022-10-16T11:18:40.481Z,5
2022-10-16T11:23:42.502Z,4.7
2022-10-16T11:28:44.565Z,3.6
2022-10-16T11:33:47.204Z,5.2
2022-10-16T11:38:49.227Z,4.7
2022-10-16T11:43:51.205Z,5.3
2022-10-16T11:48:53.589Z,5.7
2022-10-16T11:53:58.173Z,4.1
2022-10-16T11:59:00.498Z,4.9
2022-10-16T12:04:02.472Z,4.5
2022-10-16T12:09:04.809Z,4.6
2022-10-16T12:14:06.785Z,4.6
2022-10-16T12:19:08.924Z,5.2
2022-10-16T12:24:10.938Z,4.7
2022-10-16T12:29:11.815Z,5.2
2022-10-16T12:34:14.091Z,4.1
2022-10-16T12:39:16.000Z,5.2
2022-10-16T12:44:17.988Z,4.8
2022-10-16T12:49:19.838Z,4.6
2022-10-16T12:54:21.780Z,3.9
2022-10-16T12:59:23.836Z,4.5
2022-10-16T13:04:25.674Z,4.8
2022-10-16T13:09:27.596Z,3.6
2022-10-16T13:14:29.658Z,5.9
2022-10-16T13:19:31.853Z,4.8
2022-10-16T13:24:34.098Z,5.6
2022-10-16T13:29:35.975Z,5.2
2022-10-16T13:34:38.253Z,5.1
2022-10-16T13:39:40.181Z,3.9
2022-10-16T13:44:42.254Z,5.1
2022-10-16T13:49:44.270Z,3.3
2022-10-16T13:54:46.182Z,3.9
2022-10-16T13:59:48.139Z,3.3
2022-10-16T14:04:50.175Z,4.9
2022-10-16T14:09:52.165Z,4.1
2022-10-16T14:14:53.985Z,3.3
2022-10-16T14:19:57.832Z,3.6
2022-10-16T14:24:58.396Z,4.4
2022-10-16T14:30:00.290Z,6.7
2022-10-16T14:35:00.678Z,3.9
2022-10-16T14:40:02.557Z,4.5
2022-10-16T14:45:05.092Z,5
2022-10-16T14:50:07.764Z,3.8
2022-10-16T14:55:10.223Z,4.6
2022-10-16T15:00:12.543Z,5.3
2022-10-16T15:05:14.658Z,3.8
2022-10-16T15:10:16.603Z,4.6
2022-10-16T15:15:18.552Z,4
2022-10-16T15:20:20.486Z,4.2
2022-10-16T15:25:22.663Z,5.6
2022-10-16T15:30:24.576Z,6.3
2022-10-16T15:35:26.686Z,4.4
2022-10-16T15:40:28.606Z,5.8
2022-10-16T15:45:30.525Z,5.8
2022-10-16T15:50:32.818Z,4.2
2022-10-16T15:55:35.206Z,4.8
2022-10-16T16:00:37.082Z,5.9
2022-10-16T16:05:40.816Z,5.8
2022-10-16T16:10:48.158Z,7.9
2022-10-16T16:15:50.105Z,5.8
2022-10-16T16:20:52.138Z,6
2022-10-16T16:25:54.104Z,6.2
2022-10-16T16:30:55.988Z,5.8
2022-10-16T16:35:57.885Z,6.8
2022-10-16T16:41:00.469Z,8.6
2022-10-16T16:46:02.585Z,9
2022-10-16T16:51:05.093Z,8.1
2022-10-16T16:56:07.035Z,7.1
2022-10-16T17:01:19.215Z,8.2
2022-10-16T17:06:13.006Z,7
2022-10-16T17:11:15.153Z,10
2022-10-16T17:16:17.126Z,10.4
2022-10-16T17:21:19.056Z,9.5
2022-10-16T17:26:21.319Z,9
2022-10-16T17:31:23.457Z,10.8
2022-10-16T17:36:25.493Z,12.8
2022-10-16T17:41:27.497Z,10.5
2022-10-16T17:46:29.407Z,11
2022-10-16T17:51:36.659Z,9
2022-10-16T17:56:38.697Z,9.1
2022-10-16T18:01:40.771Z,11.5
2022-10-16T18:06:43.459Z,19.2
2022-10-16T18:11:45.477Z,11.9
2022-10-16T18:16:47.402Z,11.6
2022-10-16T18:21:50.340Z,12.2
2022-10-16T18:26:52.627Z,11.9
2022-10-16T18:31:54.694Z,11.4
2022-10-16T18:36:57.384Z,12.3
2022-10-16T18:41:59.559Z,11.3
2022-10-16T18:47:01.577Z,15
2022-10-16T18:52:04.110Z,12.7
2022-10-16T18:57:06.575Z,11.2
2022-10-16T19:02:08.756Z,11.5
2022-10-16T19:07:10.674Z,11.5
2022-10-16T19:12:12.783Z,12.3
2022-10-16T19:17:14.847Z,11
2022-10-16T19:24:12.002Z,8.7
2022-10-16T19:27:24.093Z,9.9
2022-10-16T19:32:26.401Z,9.2
2022-10-16T19:37:30.158Z,8.3
2022-10-16T19:42:32.214Z,9.1
2022-10-16T19:47:34.151Z,9.2
2022-10-16T19:52:36.184Z,8.7
2022-10-16T19:57:38.774Z,9.8
2022-10-16T20:02:40.785Z,10.4
2022-10-16T20:07:42.904Z,11.1
2022-10-16T20:12:45.146Z,12.4
2022-10-16T20:17:47.140Z,12.1
2022-10-16T20:22:49.373Z,11.5
2022-10-16T20:27:51.430Z,10.1
2022-10-16T20:32:53.750Z,10.6
2022-10-16T20:37:55.992Z,12.3
2022-10-16T20:42:58.477Z,14
2022-10-16T20:48:11.119Z,8.7
2022-10-16T20:53:03.402Z,11.6
2022-10-16T20:58:05.373Z,9.6
2022-10-16T21:03:07.296Z,10.8
2022-10-16T21:08:09.228Z,8.6
2022-10-16T21:13:11.164Z,10.8
2022-10-16T21:18:13.123Z,10.3
2022-10-16T21:23:15.121Z,9.5
2022-10-16T21:28:17.041Z,10.8
2022-10-16T21:33:19.193Z,45.3
2022-10-16T21:38:21.176Z,16.3
2022-10-16T21:43:23.189Z,11.2
2022-10-16T21:48:25.455Z,16.7
2022-10-16T21:53:27.425Z,18.2
2022-10-16T21:58:29.397Z,17.3
2022-10-16T22:03:31.327Z,16.5
2022-10-16T22:08:33.578Z,20.3
2022-10-16T22:13:35.711Z,18.8
2022-10-16T22:18:38.570Z,17.6
2022-10-16T22:23:40.536Z,17.2
2022-10-16T22:28:42.643Z,19.3
2022-10-16T22:33:45.052Z,20
2022-10-16T22:38:47.043Z,45.5
2022-10-16T22:43:49.015Z,17
2022-10-16T22:48:51.203Z,15
2022-10-16T22:53:55.255Z,17.6
2022-10-16T22:58:57.249Z,15.8
2022-10-16T23:03:59.135Z,12.2
2022-10-16T23:09:01.391Z,13.6
2022-10-16T23:14:03.465Z,17.5
2022-10-16T23:19:05.489Z,14.1
2022-10-16T23:24:11.161Z,17
2022-10-16T23:29:13.345Z,14.3
2022-10-16T23:34:15.631Z,14.2
2022-10-16T23:39:17.515Z,13.5
2022-10-16T23:44:19.446Z,11.2
2022-10-16T23:49:21.356Z,13.5
2022-10-16T23:54:23.215Z,12.3
2022-10-16T23:59:25.170Z,12.4
